Flight Training


We provide structured training required to obtain a pilots certificate ranging from a Private Pilot up to ATP flying for the major airlines.

If your desire to fly is for personal pleasure the first step is to find a professional FAA licensed flight instructor to begin your journey.

The one-hour introductory flight with an instructor lasts one hour and features a log book and a six-month subscription to Flight Training magazine. After flying you to the training area, your instructor will let you test the controls. Call us now

 

Aviation Weather

Available data for KLDJ from the past 2 hours
LINDEN, NJ
Metar
KLDJ 130755Z AUTO 00000KT 10SM SCT090 A2975 RMK AO2

07:55 UTC

Wind: 0° 0kt

Visibility: 10 SM

Sky: SCT 9000 ft

Temp: / 32 deg F

Dewpoint: / 32 deg F

Pressure: 29.75 inHg


Available data for KEWR from the past hour
NEWARK, NJ
TAF
KEWR 130542Z 1306/1412 24005KT P6SM SCT060 BKN120 TEMPO 1306/1307 27009KT 6SM -SHRA BR BKN060 FM131400 29008KT P6SM SCT040 SCT200 FM131700 29011KT P6SM BKN050 PROB30 1317/1319 5SM -TSRA SCT020 BKN035CB FM132100 29008KT P6SM SCT060

Our planes

Some of our students